sensor_id;sensor_type;location;lat;lon;timestamp;temperature;humidity
27900;DHT22;15243;50.726;7.080;2022-09-09T00:00:22;16.40;99.90
27900;DHT22;15243;50.726;7.080;2022-09-09T00:03:04;16.30;99.90
27900;DHT22;15243;50.726;7.080;2022-09-09T00:05:59;16.20;99.90
27900;DHT22;15243;50.726;7.080;2022-09-09T00:11:28;16.10;99.90
27900;DHT22;15243;50.726;7.080;2022-09-09T00:13:59;16.10;99.90
27900;DHT22;15243;50.726;7.080;2022-09-09T00:16:32;16.10;99.90
27900;DHT22;15243;50.726;7.080;2022-09-09T00:19:20;16.10;99.90
27900;DHT22;15243;50.726;7.080;2022-09-09T00:22:24;16.10;99.90
27900;DHT22;15243;50.726;7.080;2022-09-09T00:24:53;16.00;99.90
27900;DHT22;15243;50.726;7.080;2022-09-09T00:27:43;15.90;99.90
27900;DHT22;15243;50.726;7.080;2022-09-09T00:32:50;15.90;99.90
27900;DHT22;15243;50.726;7.080;2022-09-09T00:37:52;15.90;99.90
27900;DHT22;15243;50.726;7.080;2022-09-09T00:40:49;15.80;99.90
27900;DHT22;15243;50.726;7.080;2022-09-09T00:43:29;15.80;99.90
27900;DHT22;15243;50.726;7.080;2022-09-09T00:52:22;15.80;99.90
27900;DHT22;15243;50.726;7.080;2022-09-09T00:57:28;15.60;99.90
27900;DHT22;15243;50.726;7.080;2022-09-09T01:08:56;15.70;99.90
27900;DHT22;15243;50.726;7.080;2022-09-09T01:14:22;15.80;99.90
27900;DHT22;15243;50.726;7.080;2022-09-09T01:16:54;15.80;99.90
27900;DHT22;15243;50.726;7.080;2022-09-09T01:27:48;16.00;99.90
27900;DHT22;15243;50.726;7.080;2022-09-09T01:30:17;16.00;99.90
27900;DHT22;15243;50.726;7.080;2022-09-09T01:32:47;15.90;99.90
27900;DHT22;15243;50.726;7.080;2022-09-09T01:35:48;15.90;99.90
27900;DHT22;15243;50.726;7.080;2022-09-09T01:38:24;15.90;99.90
27900;DHT22;15243;50.726;7.080;2022-09-09T01:40:52;15.90;99.90
27900;DHT22;15243;50.726;7.080;2022-09-09T01:43:20;16.00;99.90
27900;DHT22;15243;50.726;7.080;2022-09-09T01:45:49;16.00;99.90
27900;DHT22;15243;50.726;7.080;2022-09-09T01:48:18;16.10;99.90
27900;DHT22;15243;50.726;7.080;2022-09-09T01:50:45;16.20;99.90
27900;DHT22;15243;50.726;7.080;2022-09-09T01:53:12;16.30;99.90
27900;DHT22;15243;50.726;7.080;2022-09-09T01:55:42;16.30;99.90
27900;DHT22;15243;50.726;7.080;2022-09-09T02:01:01;16.40;99.90
27900;DHT22;15243;50.726;7.080;2022-09-09T02:03:32;16.50;99.90
27900;DHT22;15243;50.726;7.080;2022-09-09T02:06:20;16.50;99.90
27900;DHT22;15243;50.726;7.080;2022-09-09T02:08:53;16.50;99.90
27900;DHT22;15243;50.726;7.080;2022-09-09T02:11:23;16.50;99.90
27900;DHT22;15243;50.726;7.080;2022-09-09T02:14:18;16.50;99.90
27900;DHT22;15243;50.726;7.080;2022-09-09T02:16:55;16.50;99.90
27900;DHT22;15243;50.726;7.080;2022-09-09T02:19:32;16.40;99.90
27900;DHT22;15243;50.726;7.080;2022-09-09T02:22:00;16.40;99.90
27900;DHT22;15243;50.726;7.080;2022-09-09T02:24:30;16.40;99.90
27900;DHT22;15243;50.726;7.080;2022-09-09T02:26:58;16.40;99.90
27900;DHT22;15243;50.726;7.080;2022-09-09T02:29:45;16.40;99.90
27900;DHT22;15243;50.726;7.080;2022-09-09T02:32:20;16.50;99.90
27900;DHT22;15243;50.726;7.080;2022-09-09T02:34:54;16.50;99.90
27900;DHT22;15243;50.726;7.080;2022-09-09T02:37:26;16.50;99.90
27900;DHT22;15243;50.726;7.080;2022-09-09T02:39:55;16.50;99.90
27900;DHT22;15243;50.726;7.080;2022-09-09T02:42:22;16.50;99.90
27900;DHT22;15243;50.726;7.080;2022-09-09T02:44:50;16.50;99.90
27900;DHT22;15243;50.726;7.080;2022-09-09T02:50:19;16.60;99.90
27900;DHT22;15243;50.726;7.080;2022-09-09T02:58:03;16.60;99.90
27900;DHT22;15243;50.726;7.080;2022-09-09T03:00:33;16.70;99.90
27900;DHT22;15243;50.726;7.080;2022-09-09T03:03:06;16.70;99.90
27900;DHT22;15243;50.726;7.080;2022-09-09T03:05:35;16.70;99.90
27900;DHT22;15243;50.726;7.080;2022-09-09T03:08:03;16.70;99.90
27900;DHT22;15243;50.726;7.080;2022-09-09T03:10:31;16.70;99.90
27900;DHT22;15243;50.726;7.080;2022-09-09T03:12:58;16.70;99.90
27900;DHT22;15243;50.726;7.080;2022-09-09T03:15:25;16.60;99.90
27900;DHT22;15243;50.726;7.080;2022-09-09T03:17:56;16.60;99.90
27900;DHT22;15243;50.726;7.080;2022-09-09T03:20:24;16.50;99.90
27900;DHT22;15243;50.726;7.080;2022-09-09T03:22:53;16.50;99.90
27900;DHT22;15243;50.726;7.080;2022-09-09T03:25:21;16.50;99.90
27900;DHT22;15243;50.726;7.080;2022-09-09T03:27:50;16.50;99.90
27900;DHT22;15243;50.726;7.080;2022-09-09T03:30:25;16.40;99.90
27900;DHT22;15243;50.726;7.080;2022-09-09T03:32:54;16.40;99.90
27900;DHT22;15243;50.726;7.080;2022-09-09T03:35:21;16.40;99.90
27900;DHT22;15243;50.726;7.080;2022-09-09T03:37:48;16.40;99.90
27900;DHT22;15243;50.726;7.080;2022-09-09T03:40:15;16.40;99.90
27900;DHT22;15243;50.726;7.080;2022-09-09T03:42:43;16.40;99.90
27900;DHT22;15243;50.726;7.080;2022-09-09T03:45:10;16.40;99.90
27900;DHT22;15243;50.726;7.080;2022-09-09T03:47:37;16.30;99.90
27900;DHT22;15243;50.726;7.080;2022-09-09T03:50:05;16.30;99.90
27900;DHT22;15243;50.726;7.080;2022-09-09T03:52:39;16.30;99.90
27900;DHT22;15243;50.726;7.080;2022-09-09T03:55:08;16.40;99.90
27900;DHT22;15243;50.726;7.080;2022-09-09T03:57:35;16.30;99.90
27900;DHT22;15243;50.726;7.080;2022-09-09T04:00:07;16.30;99.90
27900;DHT22;15243;50.726;7.080;2022-09-09T04:02:34;16.30;99.90
27900;DHT22;15243;50.726;7.080;2022-09-09T04:05:01;16.30;99.90
27900;DHT22;15243;50.726;7.080;2022-09-09T04:07:28;16.30;99.90
27900;DHT22;15243;50.726;7.080;2022-09-09T04:09:55;16.30;99.90
27900;DHT22;15243;50.726;7.080;2022-09-09T04:12:21;16.40;99.90
27900;DHT22;15243;50.726;7.080;2022-09-09T04:14:49;16.30;99.90
27900;DHT22;15243;50.726;7.080;2022-09-09T04:17:16;16.30;99.90
27900;DHT22;15243;50.726;7.080;2022-09-09T04:19:43;16.30;99.90
27900;DHT22;15243;50.726;7.080;2022-09-09T04:22:11;16.20;99.90
27900;DHT22;15243;50.726;7.080;2022-09-09T04:24:37;16.20;99.90
27900;DHT22;15243;50.726;7.080;2022-09-09T04:27:04;16.30;99.90
27900;DHT22;15243;50.726;7.080;2022-09-09T04:29:31;16.30;99.90
27900;DHT22;15243;50.726;7.080;2022-09-09T04:31:58;16.30;99.90
27900;DHT22;15243;50.726;7.080;2022-09-09T04:34:25;16.30;99.90
27900;DHT22;15243;50.726;7.080;2022-09-09T04:36:52;16.30;99.90
27900;DHT22;15243;50.726;7.080;2022-09-09T04:39:19;16.30;99.90
27900;DHT22;15243;50.726;7.080;2022-09-09T04:41:46;16.30;99.90
27900;DHT22;15243;50.726;7.080;2022-09-09T04:44:14;16.30;99.90
27900;DHT22;15243;50.726;7.080;2022-09-09T04:46:40;16.40;99.90
27900;DHT22;15243;50.726;7.080;2022-09-09T04:49:08;16.30;99.90
27900;DHT22;15243;50.726;7.080;2022-09-09T04:51:40;16.30;99.90
27900;DHT22;15243;50.726;7.080;2022-09-09T04:54:07;16.40;99.90
27900;DHT22;15243;50.726;7.080;2022-09-09T04:56:34;16.40;99.90
27900;DHT22;15243;50.726;7.080;2022-09-09T04:59:01;16.40;99.90
27900;DHT22;15243;50.726;7.080;2022-09-09T05:01:29;16.40;99.90
27900;DHT22;15243;50.726;7.080;2022-09-09T05:03:56;16.30;99.90
27900;DHT22;15243;50.726;7.080;2022-09-09T05:06:23;16.40;99.90
27900;DHT22;15243;50.726;7.080;2022-09-09T05:08:51;16.30;99.90
27900;DHT22;15243;50.726;7.080;2022-09-09T05:11:23;16.30;99.90
27900;DHT22;15243;50.726;7.080;2022-09-09T05:13:50;16.40;99.90
27900;DHT22;15243;50.726;7.080;2022-09-09T05:16:18;16.40;99.90
27900;DHT22;15243;50.726;7.080;2022-09-09T05:18:46;16.30;99.90
27900;DHT22;15243;50.726;7.080;2022-09-09T05:21:14;16.30;99.90
27900;DHT22;15243;50.726;7.080;2022-09-09T05:23:42;16.30;99.90
27900;DHT22;15243;50.726;7.080;2022-09-09T05:26:13;16.30;99.90
27900;DHT22;15243;50.726;7.080;2022-09-09T05:28:43;16.30;99.90
27900;DHT22;15243;50.726;7.080;2022-09-09T05:31:11;16.30;99.90
27900;DHT22;15243;50.726;7.080;2022-09-09T05:33:41;16.30;99.90
27900;DHT22;15243;50.726;7.080;2022-09-09T05:36:12;16.40;99.90
27900;DHT22;15243;50.726;7.080;2022-09-09T05:38:42;16.40;99.90
27900;DHT22;15243;50.726;7.080;2022-09-09T05:41:10;16.40;99.90
27900;DHT22;15243;50.726;7.080;2022-09-09T05:43:38;16.40;99.90
27900;DHT22;15243;50.726;7.080;2022-09-09T05:46:10;16.40;99.90
27900;DHT22;15243;50.726;7.080;2022-09-09T05:48:39;16.40;99.90
27900;DHT22;15243;50.726;7.080;2022-09-09T05:51:09;16.40;99.90
27900;DHT22;15243;50.726;7.080;2022-09-09T05:53:37;16.50;99.90
27900;DHT22;15243;50.726;7.080;2022-09-09T05:56:07;16.50;99.90
27900;DHT22;15243;50.726;7.080;2022-09-09T05:58:37;16.50;99.90
27900;DHT22;15243;50.726;7.080;2022-09-09T06:01:10;16.50;99.90
27900;DHT22;15243;50.726;7.080;2022-09-09T06:03:39;16.50;99.90
27900;DHT22;15243;50.726;7.080;2022-09-09T06:06:08;16.50;99.90
27900;DHT22;15243;50.726;7.080;2022-09-09T06:08:38;16.60;99.90
27900;DHT22;15243;50.726;7.080;2022-09-09T06:11:11;16.80;99.90
27900;DHT22;15243;50.726;7.080;2022-09-09T06:13:38;16.80;99.90
27900;DHT22;15243;50.726;7.080;2022-09-09T06:16:09;16.90;99.90
27900;DHT22;15243;50.726;7.080;2022-09-09T06:18:39;16.90;99.90
27900;DHT22;15243;50.726;7.080;2022-09-09T06:21:08;17.00;99.90
27900;DHT22;15243;50.726;7.080;2022-09-09T06:23:39;17.00;99.90
27900;DHT22;15243;50.726;7.080;2022-09-09T06:26:10;17.10;99.90
27900;DHT22;15243;50.726;7.080;2022-09-09T06:28:38;17.10;99.90
27900;DHT22;15243;50.726;7.080;2022-09-09T06:31:07;17.20;99.90
27900;DHT22;15243;50.726;7.080;2022-09-09T06:33:36;17.20;99.90
27900;DHT22;15243;50.726;7.080;2022-09-09T06:36:07;17.30;99.90
27900;DHT22;15243;50.726;7.080;2022-09-09T06:38:34;17.20;99.90
27900;DHT22;15243;50.726;7.080;2022-09-09T06:41:02;17.20;99.90
27900;DHT22;15243;50.726;7.080;2022-09-09T06:43:29;17.20;99.90
27900;DHT22;15243;50.726;7.080;2022-09-09T06:46:01;17.20;99.90
27900;DHT22;15243;50.726;7.080;2022-09-09T06:48:31;17.20;99.90
27900;DHT22;15243;50.726;7.080;2022-09-09T06:51:09;17.30;99.90
27900;DHT22;15243;50.726;7.080;2022-09-09T06:53:41;17.30;99.90
27900;DHT22;15243;50.726;7.080;2022-09-09T06:56:22;17.40;99.90
27900;DHT22;15243;50.726;7.080;2022-09-09T06:58:51;17.50;99.90
27900;DHT22;15243;50.726;7.080;2022-09-09T07:01:23;17.60;99.90
27900;DHT22;15243;50.726;7.080;2022-09-09T07:03:55;17.80;99.90
27900;DHT22;15243;50.726;7.080;2022-09-09T07:06:24;17.80;99.90
27900;DHT22;15243;50.726;7.080;2022-09-09T07:08:56;17.80;99.90
27900;DHT22;15243;50.726;7.080;2022-09-09T07:11:32;17.90;99.90
27900;DHT22;15243;50.726;7.080;2022-09-09T07:14:00;17.90;99.90
27900;DHT22;15243;50.726;7.080;2022-09-09T07:16:27;18.10;99.90
27900;DHT22;15243;50.726;7.080;2022-09-09T07:18:56;18.10;99.90
27900;DHT22;15243;50.726;7.080;2022-09-09T07:21:28;18.20;99.90
27900;DHT22;15243;50.726;7.080;2022-09-09T07:23:56;18.20;99.90
27900;DHT22;15243;50.726;7.080;2022-09-09T07:26:25;18.30;99.90
27900;DHT22;15243;50.726;7.080;2022-09-09T07:28:53;18.30;99.90
27900;DHT22;15243;50.726;7.080;2022-09-09T07:31:26;18.40;99.90
27900;DHT22;15243;50.726;7.080;2022-09-09T07:33:53;18.50;99.90
27900;DHT22;15243;50.726;7.080;2022-09-09T07:36:23;18.40;99.90
27900;DHT22;15243;50.726;7.080;2022-09-09T07:38:57;18.40;99.90
27900;DHT22;15243;50.726;7.080;2022-09-09T07:41:31;18.50;99.90
27900;DHT22;15243;50.726;7.080;2022-09-09T07:44:11;18.60;99.90
27900;DHT22;15243;50.726;7.080;2022-09-09T07:46:39;18.70;99.90
27900;DHT22;15243;50.726;7.080;2022-09-09T07:49:07;18.70;99.90
27900;DHT22;15243;50.726;7.080;2022-09-09T07:51:36;18.60;99.90
27900;DHT22;15243;50.726;7.080;2022-09-09T07:54:06;18.50;99.90
27900;DHT22;15243;50.726;7.080;2022-09-09T07:56:33;18.50;99.90
27900;DHT22;15243;50.726;7.080;2022-09-09T07:59:00;18.40;99.90
27900;DHT22;15243;50.726;7.080;2022-09-09T08:01:31;18.40;99.90
27900;DHT22;15243;50.726;7.080;2022-09-09T08:03:59;18.40;99.90
27900;DHT22;15243;50.726;7.080;2022-09-09T08:06:29;18.40;99.90
27900;DHT22;15243;50.726;7.080;2022-09-09T08:08:56;18.40;99.90
27900;DHT22;15243;50.726;7.080;2022-09-09T08:11:25;18.40;99.90
27900;DHT22;15243;50.726;7.080;2022-09-09T08:13:53;18.50;99.90
27900;DHT22;15243;50.726;7.080;2022-09-09T08:16:28;18.60;99.90
27900;DHT22;15243;50.726;7.080;2022-09-09T08:18:56;18.70;99.90
27900;DHT22;15243;50.726;7.080;2022-09-09T08:21:29;19.00;99.90
27900;DHT22;15243;50.726;7.080;2022-09-09T08:23:58;19.10;99.90
27900;DHT22;15243;50.726;7.080;2022-09-09T08:26:30;19.20;99.90
27900;DHT22;15243;50.726;7.080;2022-09-09T08:28:59;19.10;99.90
27900;DHT22;15243;50.726;7.080;2022-09-09T08:31:35;18.90;99.90
27900;DHT22;15243;50.726;7.080;2022-09-09T08:34:03;19.20;99.90
27900;DHT22;15243;50.726;7.080;2022-09-09T08:36:34;19.40;99.90
27900;DHT22;15243;50.726;7.080;2022-09-09T08:39:02;19.30;99.90
27900;DHT22;15243;50.726;7.080;2022-09-09T08:48:01;19.30;99.90
27900;DHT22;15243;50.726;7.080;2022-09-09T08:50:38;19.20;99.90
27900;DHT22;15243;50.726;7.080;2022-09-09T08:53:24;19.30;99.90
27900;DHT22;15243;50.726;7.080;2022-09-09T08:55:56;19.50;99.90
27900;DHT22;15243;50.726;7.080;2022-09-09T09:01:00;19.70;99.90
27900;DHT22;15243;50.726;7.080;2022-09-09T09:09:08;20.20;99.90
27900;DHT22;15243;50.726;7.080;2022-09-09T09:11:40;20.40;99.90
27900;DHT22;15243;50.726;7.080;2022-09-09T09:14:19;20.40;99.90
27900;DHT22;15243;50.726;7.080;2022-09-09T09:19:31;19.70;99.90
27900;DHT22;15243;50.726;7.080;2022-09-09T09:27:36;20.10;99.90
27900;DHT22;15243;50.726;7.080;2022-09-09T09:30:35;20.10;99.90
27900;DHT22;15243;50.726;7.080;2022-09-09T09:33:08;20.20;99.90
27900;DHT22;15243;50.726;7.080;2022-09-09T09:35:41;20.00;99.90
27900;DHT22;15243;50.726;7.080;2022-09-09T09:38:22;19.70;99.90
27900;DHT22;15243;50.726;7.080;2022-09-09T09:41:09;19.70;99.90
27900;DHT22;15243;50.726;7.080;2022-09-09T09:43:40;19.70;99.90
27900;DHT22;15243;50.726;7.080;2022-09-09T09:48:43;19.70;99.90
27900;DHT22;15243;50.726;7.080;2022-09-09T09:51:22;19.50;99.90
27900;DHT22;15243;50.726;7.080;2022-09-09T09:53:49;19.60;99.90
27900;DHT22;15243;50.726;7.080;2022-09-09T09:56:27;20.10;99.90
27900;DHT22;15243;50.726;7.080;2022-09-09T09:58:56;20.30;99.90
27900;DHT22;15243;50.726;7.080;2022-09-09T10:01:28;20.40;99.90
27900;DHT22;15243;50.726;7.080;2022-09-09T10:04:00;20.00;99.90
27900;DHT22;15243;50.726;7.080;2022-09-09T10:06:36;20.10;99.90
27900;DHT22;15243;50.726;7.080;2022-09-09T10:09:26;20.20;99.90
27900;DHT22;15243;50.726;7.080;2022-09-09T10:20:54;20.10;99.90
27900;DHT22;15243;50.726;7.080;2022-09-09T10:31:25;20.00;99.90
27900;DHT22;15243;50.726;7.080;2022-09-09T10:36:34;19.70;99.90
27900;DHT22;15243;50.726;7.080;2022-09-09T10:42:03;19.80;99.90
27900;DHT22;15243;50.726;7.080;2022-09-09T10:56:12;20.00;99.90
27900;DHT22;15243;50.726;7.080;2022-09-09T10:58:47;19.90;99.90
27900;DHT22;15243;50.726;7.080;2022-09-09T11:01:48;20.00;99.90
27900;DHT22;15243;50.726;7.080;2022-09-09T11:04:27;20.10;99.90
27900;DHT22;15243;50.726;7.080;2022-09-09T11:07:07;20.60;99.90
27900;DHT22;15243;50.726;7.080;2022-09-09T11:09:43;20.80;99.90
27900;DHT22;15243;50.726;7.080;2022-09-09T11:12:18;21.00;99.90
27900;DHT22;15243;50.726;7.080;2022-09-09T11:14:52;21.10;99.90
27900;DHT22;15243;50.726;7.080;2022-09-09T11:17:33;21.10;99.90
27900;DHT22;15243;50.726;7.080;2022-09-09T11:20:05;21.30;99.90
27900;DHT22;15243;50.726;7.080;2022-09-09T11:22:34;21.80;99.90
27900;DHT22;15243;50.726;7.080;2022-09-09T11:25:15;22.20;99.90
27900;DHT22;15243;50.726;7.080;2022-09-09T11:33:51;22.20;99.90
27900;DHT22;15243;50.726;7.080;2022-09-09T11:42:29;21.80;99.90
27900;DHT22;15243;50.726;7.080;2022-09-09T11:45:22;22.00;99.90
27900;DHT22;15243;50.726;7.080;2022-09-09T11:47:58;22.00;99.90
27900;DHT22;15243;50.726;7.080;2022-09-09T11:50:30;22.00;99.90
27900;DHT22;15243;50.726;7.080;2022-09-09T11:55:40;21.70;99.90
27900;DHT22;15243;50.726;7.080;2022-09-09T12:00:42;21.30;99.90
27900;DHT22;15243;50.726;7.080;2022-09-09T12:06:32;21.30;99.90
27900;DHT22;15243;50.726;7.080;2022-09-09T12:11:51;21.40;99.90
27900;DHT22;15243;50.726;7.080;2022-09-09T12:15:16;21.60;99.90
27900;DHT22;15243;50.726;7.080;2022-09-09T12:19:43;21.60;99.90
27900;DHT22;15243;50.726;7.080;2022-09-09T12:22:24;21.50;99.90
27900;DHT22;15243;50.726;7.080;2022-09-09T12:27:57;21.30;99.90
27900;DHT22;15243;50.726;7.080;2022-09-09T12:30:35;21.30;99.90
27900;DHT22;15243;50.726;7.080;2022-09-09T12:33:22;21.20;99.90
27900;DHT22;15243;50.726;7.080;2022-09-09T12:35:56;21.10;99.90
27900;DHT22;15243;50.726;7.080;2022-09-09T12:38:38;21.00;99.90
27900;DHT22;15243;50.726;7.080;2022-09-09T12:41:26;20.90;99.90
27900;DHT22;15243;50.726;7.080;2022-09-09T12:44:08;20.90;99.90
27900;DHT22;15243;50.726;7.080;2022-09-09T12:46:43;21.10;99.90
27900;DHT22;15243;50.726;7.080;2022-09-09T12:49:29;21.10;99.90
27900;DHT22;15243;50.726;7.080;2022-09-09T12:52:26;21.20;99.90
27900;DHT22;15243;50.726;7.080;2022-09-09T12:54:54;20.90;99.90
27900;DHT22;15243;50.726;7.080;2022-09-09T12:57:23;20.70;99.90
27900;DHT22;15243;50.726;7.080;2022-09-09T12:59:52;20.80;99.90
27900;DHT22;15243;50.726;7.080;2022-09-09T13:04:47;20.80;99.90
27900;DHT22;15243;50.726;7.080;2022-09-09T13:07:14;20.80;99.90
27900;DHT22;15243;50.726;7.080;2022-09-09T13:09:44;20.90;99.90
27900;DHT22;15243;50.726;7.080;2022-09-09T13:12:18;20.80;99.90
27900;DHT22;15243;50.726;7.080;2022-09-09T13:14:48;21.00;99.90
27900;DHT22;15243;50.726;7.080;2022-09-09T13:17:27;21.00;99.90
27900;DHT22;15243;50.726;7.080;2022-09-09T13:19:57;21.00;99.90
27900;DHT22;15243;50.726;7.080;2022-09-09T13:25:01;20.80;99.90
27900;DHT22;15243;50.726;7.080;2022-09-09T13:27:32;20.60;99.90
27900;DHT22;15243;50.726;7.080;2022-09-09T13:30:01;20.50;99.90
27900;DHT22;15243;50.726;7.080;2022-09-09T13:32:28;20.50;99.90
27900;DHT22;15243;50.726;7.080;2022-09-09T13:34:57;20.70;99.90
27900;DHT22;15243;50.726;7.080;2022-09-09T13:37:35;20.80;99.90
27900;DHT22;15243;50.726;7.080;2022-09-09T13:40:04;21.10;99.90
27900;DHT22;15243;50.726;7.080;2022-09-09T13:42:36;22.20;99.90
27900;DHT22;15243;50.726;7.080;2022-09-09T13:45:06;22.90;99.90
27900;DHT22;15243;50.726;7.080;2022-09-09T13:47:36;23.30;99.90
27900;DHT22;15243;50.726;7.080;2022-09-09T13:52:57;21.80;99.90
27900;DHT22;15243;50.726;7.080;2022-09-09T13:55:27;21.20;99.90
27900;DHT22;15243;50.726;7.080;2022-09-09T13:57:56;21.20;99.90
27900;DHT22;15243;50.726;7.080;2022-09-09T14:00:24;21.50;99.90
27900;DHT22;15243;50.726;7.080;2022-09-09T14:02:51;21.20;99.90
27900;DHT22;15243;50.726;7.080;2022-09-09T14:05:18;21.40;99.90
27900;DHT22;15243;50.726;7.080;2022-09-09T14:07:46;21.50;99.90
27900;DHT22;15243;50.726;7.080;2022-09-09T14:10:18;21.20;99.90
27900;DHT22;15243;50.726;7.080;2022-09-09T14:12:45;21.10;99.90
27900;DHT22;15243;50.726;7.080;2022-09-09T14:15:13;21.00;99.90
27900;DHT22;15243;50.726;7.080;2022-09-09T14:17:41;20.70;99.90
27900;DHT22;15243;50.726;7.080;2022-09-09T14:20:09;21.00;99.90
27900;DHT22;15243;50.726;7.080;2022-09-09T14:22:36;21.30;99.90
27900;DHT22;15243;50.726;7.080;2022-09-09T14:25:04;22.80;99.90
27900;DHT22;15243;50.726;7.080;2022-09-09T14:27:31;22.90;99.90
27900;DHT22;15243;50.726;7.080;2022-09-09T14:29:59;22.90;99.90
27900;DHT22;15243;50.726;7.080;2022-09-09T14:32:27;23.20;99.90
27900;DHT22;15243;50.726;7.080;2022-09-09T14:34:54;23.00;99.90
27900;DHT22;15243;50.726;7.080;2022-09-09T14:37:21;23.10;99.90
27900;DHT22;15243;50.726;7.080;2022-09-09T14:39:48;22.50;99.90
27900;DHT22;15243;50.726;7.080;2022-09-09T14:42:17;22.80;99.90
27900;DHT22;15243;50.726;7.080;2022-09-09T14:44:45;23.60;99.90
27900;DHT22;15243;50.726;7.080;2022-09-09T14:47:12;25.10;99.90
27900;DHT22;15243;50.726;7.080;2022-09-09T14:49:39;26.50;99.90
27900;DHT22;15243;50.726;7.080;2022-09-09T14:52:10;26.80;99.90
27900;DHT22;15243;50.726;7.080;2022-09-09T14:54:38;26.20;99.90
27900;DHT22;15243;50.726;7.080;2022-09-09T14:57:04;25.70;99.90
27900;DHT22;15243;50.726;7.080;2022-09-09T14:59:31;26.00;99.90
27900;DHT22;15243;50.726;7.080;2022-09-09T15:01:58;25.50;99.90
27900;DHT22;15243;50.726;7.080;2022-09-09T15:04:27;25.30;99.90
27900;DHT22;15243;50.726;7.080;2022-09-09T15:06:54;24.20;99.90
27900;DHT22;15243;50.726;7.080;2022-09-09T15:09:21;23.50;99.90
27900;DHT22;15243;50.726;7.080;2022-09-09T15:11:48;23.20;99.90
27900;DHT22;15243;50.726;7.080;2022-09-09T15:14:14;22.70;99.90
27900;DHT22;15243;50.726;7.080;2022-09-09T15:16:41;22.10;99.90
27900;DHT22;15243;50.726;7.080;2022-09-09T15:19:08;22.10;99.90
27900;DHT22;15243;50.726;7.080;2022-09-09T15:21:36;21.70;99.90
27900;DHT22;15243;50.726;7.080;2022-09-09T15:24:05;21.30;99.90
27900;DHT22;15243;50.726;7.080;2022-09-09T15:26:34;21.20;99.90
27900;DHT22;15243;50.726;7.080;2022-09-09T15:29:02;21.30;99.90
27900;DHT22;15243;50.726;7.080;2022-09-09T15:31:30;21.10;99.90
27900;DHT22;15243;50.726;7.080;2022-09-09T15:34:06;20.90;99.90
27900;DHT22;15243;50.726;7.080;2022-09-09T15:36:35;20.80;99.90
27900;DHT22;15243;50.726;7.080;2022-09-09T15:39:05;20.60;99.90
27900;DHT22;15243;50.726;7.080;2022-09-09T15:41:32;20.50;99.90
27900;DHT22;15243;50.726;7.080;2022-09-09T15:44:00;20.50;99.90
27900;DHT22;15243;50.726;7.080;2022-09-09T15:46:33;20.20;99.90
27900;DHT22;15243;50.726;7.080;2022-09-09T15:51:41;19.90;99.90
27900;DHT22;15243;50.726;7.080;2022-09-09T15:54:18;20.10;99.90
27900;DHT22;15243;50.726;7.080;2022-09-09T15:56:46;19.80;99.90
27900;DHT22;15243;50.726;7.080;2022-09-09T15:59:14;20.00;99.90
27900;DHT22;15243;50.726;7.080;2022-09-09T16:01:42;19.90;99.90
27900;DHT22;15243;50.726;7.080;2022-09-09T16:04:10;19.90;99.90
27900;DHT22;15243;50.726;7.080;2022-09-09T16:06:37;20.00;99.90
27900;DHT22;15243;50.726;7.080;2022-09-09T16:09:06;20.10;99.90
27900;DHT22;15243;50.726;7.080;2022-09-09T16:11:36;20.00;99.90
27900;DHT22;15243;50.726;7.080;2022-09-09T16:14:03;19.90;99.90
27900;DHT22;15243;50.726;7.080;2022-09-09T16:16:31;19.90;99.90
27900;DHT22;15243;50.726;7.080;2022-09-09T16:19:00;19.90;99.90
27900;DHT22;15243;50.726;7.080;2022-09-09T16:21:31;19.80;99.90
27900;DHT22;15243;50.726;7.080;2022-09-09T16:24:00;19.90;99.90
27900;DHT22;15243;50.726;7.080;2022-09-09T16:26:28;20.00;99.90
27900;DHT22;15243;50.726;7.080;2022-09-09T16:28:57;19.80;99.90
27900;DHT22;15243;50.726;7.080;2022-09-09T16:31:27;19.70;99.90
27900;DHT22;15243;50.726;7.080;2022-09-09T16:33:54;19.60;99.90
27900;DHT22;15243;50.726;7.080;2022-09-09T16:36:26;19.60;99.90
27900;DHT22;15243;50.726;7.080;2022-09-09T16:38:54;19.50;99.90
27900;DHT22;15243;50.726;7.080;2022-09-09T16:41:22;19.60;99.90
27900;DHT22;15243;50.726;7.080;2022-09-09T16:43:56;19.70;99.90
27900;DHT22;15243;50.726;7.080;2022-09-09T16:46:23;19.60;99.90
27900;DHT22;15243;50.726;7.080;2022-09-09T16:48:51;19.40;99.90
27900;DHT22;15243;50.726;7.080;2022-09-09T16:51:24;19.30;99.90
27900;DHT22;15243;50.726;7.080;2022-09-09T16:53:52;19.30;99.90
27900;DHT22;15243;50.726;7.080;2022-09-09T16:56:22;19.10;99.90
27900;DHT22;15243;50.726;7.080;2022-09-09T16:58:56;19.00;99.90
27900;DHT22;15243;50.726;7.080;2022-09-09T17:01:28;19.00;99.90
27900;DHT22;15243;50.726;7.080;2022-09-09T17:04:00;18.90;99.90
27900;DHT22;15243;50.726;7.080;2022-09-09T17:06:31;18.80;99.90
27900;DHT22;15243;50.726;7.080;2022-09-09T17:09:03;18.70;99.90
27900;DHT22;15243;50.726;7.080;2022-09-09T17:11:30;18.70;99.90
27900;DHT22;15243;50.726;7.080;2022-09-09T17:13:57;18.60;99.90
27900;DHT22;15243;50.726;7.080;2022-09-09T17:16:27;18.50;99.90
27900;DHT22;15243;50.726;7.080;2022-09-09T17:18:56;18.50;99.90
27900;DHT22;15243;50.726;7.080;2022-09-09T17:21:26;18.40;99.90
27900;DHT22;15243;50.726;7.080;2022-09-09T17:23:54;18.40;99.90
27900;DHT22;15243;50.726;7.080;2022-09-09T17:26:24;18.30;99.90
27900;DHT22;15243;50.726;7.080;2022-09-09T17:28:54;18.20;99.90
27900;DHT22;15243;50.726;7.080;2022-09-09T17:31:26;18.30;99.90
27900;DHT22;15243;50.726;7.080;2022-09-09T17:33:54;18.30;99.90
27900;DHT22;15243;50.726;7.080;2022-09-09T17:36:25;18.10;99.90
27900;DHT22;15243;50.726;7.080;2022-09-09T17:38:53;18.00;99.90
27900;DHT22;15243;50.726;7.080;2022-09-09T17:41:29;17.90;99.90
27900;DHT22;15243;50.726;7.080;2022-09-09T17:43:56;17.80;99.90
27900;DHT22;15243;50.726;7.080;2022-09-09T17:46:30;17.80;99.90
27900;DHT22;15243;50.726;7.080;2022-09-09T17:49:04;17.80;99.90
27900;DHT22;15243;50.726;7.080;2022-09-09T17:51:35;17.70;99.90
27900;DHT22;15243;50.726;7.080;2022-09-09T17:54:07;17.60;99.90
27900;DHT22;15243;50.726;7.080;2022-09-09T17:56:35;17.60;99.90
27900;DHT22;15243;50.726;7.080;2022-09-09T17:59:04;17.60;99.90
27900;DHT22;15243;50.726;7.080;2022-09-09T18:01:33;17.60;99.90
27900;DHT22;15243;50.726;7.080;2022-09-09T18:04:03;17.60;99.90
27900;DHT22;15243;50.726;7.080;2022-09-09T18:06:42;17.60;99.90
27900;DHT22;15243;50.726;7.080;2022-09-09T18:09:12;17.60;99.90
27900;DHT22;15243;50.726;7.080;2022-09-09T18:11:43;17.60;99.90
27900;DHT22;15243;50.726;7.080;2022-09-09T18:14:15;17.50;99.90
27900;DHT22;15243;50.726;7.080;2022-09-09T18:16:44;17.60;99.90
27900;DHT22;15243;50.726;7.080;2022-09-09T18:19:15;17.50;99.90
27900;DHT22;15243;50.726;7.080;2022-09-09T18:21:46;17.60;99.90